createdAt,value
2018-12-15T04:06:54.385Z,97.20
2018-12-15T04:09:42.293Z,89.13
2018-12-15T04:12:29.937Z,97.75
2018-12-15T04:15:18.001Z,89.87
2018-12-15T04:18:05.930Z,91.37
2018-12-15T04:20:53.779Z,92.02
2018-12-15T04:23:41.692Z,85.22
2018-12-15T04:26:29.464Z,81.78
2018-12-15T04:29:17.224Z,85.85
2018-12-15T04:32:05.590Z,89.75
2018-12-15T04:34:53.995Z,91.45
2018-12-15T04:37:41.946Z,77.10
2018-12-15T04:40:30.097Z,85.15
2018-12-15T04:43:18.835Z,78.52
2018-12-15T04:46:06.963Z,84.77
2018-12-15T04:48:55.962Z,85.87
2018-12-15T04:51:43.485Z,77.85
2018-12-15T04:54:32.729Z,94.83
2018-12-15T04:57:21.927Z,122.07
2018-12-15T05:00:10.290Z,126.02
2018-12-15T05:02:59.016Z,127.82
2018-12-15T05:05:48.026Z,119.47
2018-12-15T05:08:38.374Z,112.77
2018-12-15T05:11:28.206Z,109.70
2018-12-15T05:14:24.723Z,109.55
2018-12-15T05:17:18.370Z,113.05
2018-12-15T05:20:12.030Z,100.70
2018-12-15T05:23:04.172Z,105.00
2018-12-15T05:25:54.096Z,92.78
2018-12-15T05:28:44.219Z,96.22
2018-12-15T05:31:33.559Z,89.83
2018-12-15T05:34:21.611Z,90.15
2018-12-15T05:37:11.913Z,91.65
2018-12-15T05:40:03.483Z,86.12
2018-12-15T05:42:52.990Z,89.17
2018-12-15T05:45:46.591Z,92.47
2018-12-15T05:48:39.839Z,91.42
2018-12-15T05:51:31.538Z,91.97
2018-12-15T05:54:23.705Z,95.50
2018-12-15T05:57:12.822Z,103.90
2018-12-15T06:00:01.312Z,83.72
2018-12-15T06:02:51.040Z,88.65
2018-12-15T06:05:41.544Z,83.33
2018-12-15T06:08:35.509Z,87.82
2018-12-15T06:11:27.067Z,81.05
2018-12-15T06:14:15.803Z,86.92
2018-12-15T06:17:05.555Z,84.28
2018-12-15T06:19:54.798Z,88.00
2018-12-15T06:22:46.342Z,79.85
2018-12-15T06:25:34.406Z,85.70
2018-12-15T06:28:24.251Z,87.55
2018-12-15T06:31:16.255Z,89.67
2018-12-15T06:34:05.935Z,75.55
2018-12-15T06:36:57.739Z,84.37
2018-12-15T06:39:48.126Z,84.92
2018-12-15T06:42:40.528Z,83.45
2018-12-15T06:45:31.069Z,82.08
2018-12-15T06:48:24.081Z,84.30
2018-12-15T06:51:12.742Z,80.45
2018-12-15T06:54:00.372Z,81.65
2018-12-15T06:56:47.967Z,86.15
2018-12-15T06:59:40.415Z,81.45
2018-12-15T07:02:33.283Z,78.87
2018-12-15T07:05:22.027Z,78.60
2018-12-15T07:08:11.893Z,75.20
2018-12-15T07:11:00.268Z,85.47
2018-12-15T07:13:48.537Z,81.70
2018-12-15T07:16:36.866Z,85.77
2018-12-15T07:19:26.076Z,73.75
2018-12-15T07:22:15.054Z,73.97
2018-12-15T07:25:03.540Z,72.50
2018-12-15T07:27:51.254Z,75.90
2018-12-15T07:30:39.529Z,78.22
2018-12-15T07:33:26.985Z,82.02
2018-12-15T07:36:18.404Z,71.72
2018-12-15T07:39:15.068Z,86.35
2018-12-15T07:42:04.360Z,78.02
2018-12-15T07:44:53.497Z,77.70
2018-12-15T07:47:41.181Z,70.70
2018-12-15T07:50:29.534Z,73.90
2018-12-15T07:53:17.903Z,73.75
2018-12-15T07:56:07.884Z,74.37
2018-12-15T07:58:57.498Z,73.25
2018-12-15T08:01:54.410Z,84.05
2018-12-15T08:04:47.093Z,72.65
2018-12-15T08:07:38.305Z,72.40
2018-12-15T08:10:30.825Z,73.00
2018-12-15T08:13:32.048Z,69.82
2018-12-15T08:16:23.726Z,72.08
2018-12-15T08:19:15.670Z,71.47
2018-12-15T08:22:06.744Z,76.20
2018-12-15T08:24:57.756Z,71.00
2018-12-15T08:27:50.008Z,66.75
2018-12-15T08:30:42.111Z,73.28
2018-12-15T08:33:30.845Z,70.62
2018-12-15T08:36:18.309Z,69.22
2018-12-15T08:39:08.704Z,71.80
2018-12-15T08:41:59.271Z,70.05
2018-12-15T08:44:47.668Z,70.75
2018-12-15T08:47:36.920Z,71.77
2018-12-15T08:50:24.984Z,68.67
2018-12-15T08:53:14.068Z,62.88
2018-12-15T08:56:01.930Z,67.65
2018-12-15T08:58:51.352Z,65.97
2018-12-15T09:01:40.739Z,68.22
2018-12-15T09:04:30.763Z,67.47
2018-12-15T09:07:20.930Z,68.92
2018-12-15T09:10:13.296Z,67.17
2018-12-15T09:13:04.858Z,68.37
2018-12-15T09:15:56.231Z,66.37
2018-12-15T09:18:46.321Z,63.02
2018-12-15T09:21:36.779Z,68.87
2018-12-15T09:24:24.771Z,67.37
2018-12-15T09:27:14.746Z,67.17
2018-12-15T09:30:04.076Z,66.82
2018-12-15T09:32:54.064Z,66.70
2018-12-15T09:35:43.333Z,64.40
2018-12-15T09:38:31.461Z,67.42
2018-12-15T09:41:21.495Z,72.80
2018-12-15T09:44:10.508Z,69.37
2018-12-15T09:47:01.205Z,65.50
2018-12-15T09:49:56.167Z,76.85
2018-12-15T09:52:46.633Z,70.25
2018-12-15T09:55:37.622Z,66.40
2018-12-15T09:58:28.093Z,66.92
2018-12-15T10:01:22.140Z,70.12
2018-12-15T10:04:13.343Z,63.55
2018-12-15T10:07:01.494Z,72.85
2018-12-15T10:09:49.890Z,64.72
2018-12-15T10:12:37.712Z,66.50
2018-12-15T10:15:32.754Z,73.90
2018-12-15T10:18:21.760Z,70.95
2018-12-15T10:21:10.977Z,70.28
2018-12-15T10:23:59.817Z,69.53
2018-12-15T10:27:00.674Z,70.10
2018-12-15T10:29:58.411Z,63.00
2018-12-15T10:32:54.446Z,63.95
2018-12-15T10:35:44.242Z,71.75
2018-12-15T10:38:32.004Z,70.70
2018-12-15T10:41:22.554Z,68.52
2018-12-15T10:44:11.398Z,76.28
2018-12-15T10:47:01.138Z,71.67
2018-12-15T10:49:51.345Z,65.15
2018-12-15T10:52:39.727Z,70.32
2018-12-15T10:55:28.466Z,65.87
2018-12-15T10:58:17.302Z,71.75
2018-12-15T11:01:11.035Z,63.60
2018-12-15T11:04:01.000Z,65.17
2018-12-15T11:06:49.152Z,71.12
2018-12-15T11:09:39.454Z,66.95
2018-12-15T11:12:29.818Z,61.68
2018-12-15T11:15:18.379Z,66.90
2018-12-15T11:18:06.847Z,65.17
2018-12-15T11:20:55.482Z,63.50
2018-12-15T11:23:46.170Z,64.53
2018-12-15T11:26:36.532Z,62.20
2018-12-15T11:29:26.998Z,64.72
2018-12-15T11:32:15.963Z,59.23
2018-12-15T11:35:04.213Z,58.38
2018-12-15T11:37:52.539Z,65.97
2018-12-15T11:40:41.736Z,62.27
2018-12-15T11:43:32.227Z,70.92
2018-12-15T11:46:23.189Z,63.33
2018-12-15T11:49:12.149Z,62.75
2018-12-15T11:52:00.746Z,66.20
2018-12-15T11:54:50.600Z,71.22
2018-12-15T11:57:40.291Z,78.15
2018-12-15T12:00:28.345Z,73.45
2018-12-15T12:06:16.332Z,72.03
2018-12-15T12:09:04.361Z,79.53
2018-12-15T12:11:53.959Z,83.25
2018-12-15T12:14:42.205Z,71.75
2018-12-15T12:17:32.105Z,75.70
2018-12-15T12:20:21.114Z,71.77
2018-12-15T12:23:10.557Z,76.35
2018-12-15T12:26:02.166Z,79.62
2018-12-15T12:28:51.869Z,86.53
2018-12-15T12:31:41.648Z,67.50
2018-12-15T12:34:31.047Z,68.20
2018-12-15T12:37:19.809Z,68.60
2018-12-15T12:40:09.481Z,73.25
2018-12-15T12:42:58.420Z,69.25
2018-12-15T12:45:47.250Z,77.65
2018-12-15T12:48:37.925Z,82.97
2018-12-15T12:51:26.900Z,77.35
2018-12-15T12:54:16.368Z,84.67
2018-12-15T12:57:05.225Z,83.27
2018-12-15T12:59:52.900Z,82.05
2018-12-15T13:02:41.929Z,59.55
2018-12-15T13:05:32.169Z,59.05
2018-12-15T13:08:22.027Z,60.40
2018-12-15T13:11:11.001Z,65.52
2018-12-15T13:14:00.021Z,64.77
2018-12-15T13:16:48.546Z,61.08
2018-12-15T13:19:37.803Z,64.90
2018-12-15T13:22:25.835Z,60.45
2018-12-15T13:25:14.546Z,66.28
2018-12-15T13:28:02.875Z,65.47
2018-12-15T13:30:52.965Z,59.13
2018-12-15T13:33:42.134Z,60.43
2018-12-15T13:36:31.997Z,61.95
2018-12-15T13:39:21.080Z,59.95
2018-12-15T13:42:10.366Z,65.60
2018-12-15T13:44:58.553Z,59.60
2018-12-15T13:47:48.183Z,63.35
2018-12-15T13:50:38.637Z,65.80
2018-12-15T13:53:28.127Z,65.75
2018-12-15T13:56:17.344Z,65.47
2018-12-15T14:08:46.293Z,61.37
2018-12-15T14:11:34.608Z,59.90
2018-12-15T14:14:23.219Z,59.90
2018-12-15T14:17:11.228Z,62.73
2018-12-15T14:19:59.365Z,57.30
2018-12-15T14:22:47.363Z,60.40
2018-12-15T14:25:35.908Z,69.27
2018-12-15T14:28:24.984Z,73.52
2018-12-15T14:31:14.375Z,66.90
2018-12-15T14:34:03.493Z,65.37
2018-12-15T14:36:51.085Z,61.68
2018-12-15T14:39:39.542Z,59.95
2018-12-15T14:42:29.209Z,63.38
2018-12-15T14:45:17.885Z,64.27
2018-12-15T14:48:07.779Z,59.50
2018-12-15T14:50:56.650Z,60.63
2018-12-15T14:53:45.315Z,61.10
2018-12-15T14:56:33.890Z,63.83
2018-12-15T14:59:22.980Z,63.58
2018-12-15T15:02:11.463Z,63.10
2018-12-15T15:05:00.377Z,60.90
2018-12-15T15:07:49.549Z,58.50
2018-12-15T15:10:39.107Z,63.90
2018-12-15T15:13:34.443Z,60.35
2018-12-15T15:16:20.648Z,65.80
2018-12-15T15:19:11.000Z,61.30
2018-12-15T15:22:01.921Z,60.73
2018-12-15T15:24:51.346Z,59.85
2018-12-15T15:27:40.912Z,62.03
2018-12-15T15:30:30.043Z,53.87
2018-12-15T15:33:18.939Z,60.50
2018-12-15T15:36:07.429Z,58.33
2018-12-15T15:38:55.663Z,63.80
2018-12-15T15:41:44.576Z,66.22
2018-12-15T15:44:33.196Z,61.28
2018-12-15T15:47:21.038Z,63.10
2018-12-15T15:50:09.826Z,61.08
2018-12-15T15:52:57.930Z,56.73
2018-12-15T15:55:46.116Z,60.73
2018-12-15T15:58:36.005Z,63.23
2018-12-15T16:01:25.513Z,64.45
2018-12-15T16:04:14.760Z,59.67
2018-12-15T16:07:05.918Z,63.33
2018-12-15T16:09:54.349Z,59.95
2018-12-15T16:12:42.608Z,63.08
2018-12-15T16:15:31.089Z,63.52
2018-12-15T16:18:19.436Z,57.33
2018-12-15T16:21:08.071Z,61.83
2018-12-15T16:23:57.206Z,63.25
2018-12-15T16:26:45.847Z,62.38
2018-12-15T16:29:36.005Z,65.45
2018-12-15T16:32:24.766Z,63.13
2018-12-15T16:35:13.132Z,63.33
2018-12-15T16:38:01.905Z,62.03
2018-12-15T16:40:51.136Z,60.88
2018-12-15T16:43:40.063Z,62.70
2018-12-15T16:46:28.581Z,57.67
2018-12-15T16:49:17.472Z,58.75
2018-12-15T16:52:06.143Z,59.18
2018-12-15T16:54:54.703Z,62.13
2018-12-15T16:57:44.134Z,61.58
2018-12-15T17:00:32.327Z,61.40
2018-12-15T17:03:20.993Z,63.92
2018-12-15T17:06:08.989Z,63.75
2018-12-15T17:08:58.402Z,60.23
2018-12-15T17:11:46.581Z,65.45
2018-12-15T17:14:34.614Z,60.92
2018-12-15T17:17:22.703Z,67.55
2018-12-15T17:20:11.825Z,68.97
2018-12-15T17:22:59.669Z,58.08
2018-12-15T17:25:48.028Z,60.03
2018-12-15T17:28:35.990Z,57.67
2018-12-15T17:31:25.699Z,63.05
2018-12-15T17:34:17.274Z,64.00
2018-12-15T17:37:05.920Z,57.58
2018-12-15T17:39:53.641Z,58.35
2018-12-15T17:42:41.755Z,60.10
2018-12-15T17:45:31.393Z,61.23
2018-12-15T17:48:19.490Z,56.80
2018-12-15T17:51:07.141Z,62.25
2018-12-15T17:53:56.125Z,64.97
2018-12-15T17:56:44.068Z,63.23
2018-12-15T17:59:32.316Z,61.02
2018-12-15T18:02:21.127Z,58.50
2018-12-15T18:05:10.264Z,62.60
2018-12-15T18:07:58.744Z,60.03
2018-12-15T18:10:46.721Z,63.13
2018-12-15T18:13:35.335Z,61.37
2018-12-15T18:16:23.320Z,59.67
2018-12-15T18:19:11.545Z,65.32
2018-12-15T18:22:00.176Z,59.73
2018-12-15T18:24:49.178Z,67.22
2018-12-15T18:27:37.596Z,60.92
2018-12-15T18:30:26.440Z,73.15
2018-12-15T18:33:14.551Z,59.15
2018-12-15T18:36:02.932Z,59.48
2018-12-15T18:38:52.245Z,61.00
2018-12-15T18:41:40.262Z,62.90
2018-12-15T18:44:28.350Z,63.28
2018-12-15T18:47:16.450Z,64.05
2018-12-15T18:50:04.021Z,62.65
2018-12-15T18:52:52.498Z,67.80
2018-12-15T18:55:41.042Z,58.78
2018-12-15T18:58:29.904Z,63.48
2018-12-15T19:01:18.881Z,66.62
2018-12-15T19:04:10.101Z,65.90
2018-12-15T19:06:59.453Z,67.78
2018-12-15T19:09:48.077Z,68.42
2018-12-15T19:12:36.200Z,64.27
2018-12-15T19:15:25.044Z,66.77
2018-12-15T19:18:12.931Z,60.63
2018-12-15T19:21:01.270Z,60.92
2018-12-15T19:23:49.433Z,64.17
2018-12-15T19:26:40.355Z,64.60
2018-12-15T19:29:28.240Z,62.17
2018-12-15T19:32:16.655Z,62.48
2018-12-15T19:35:04.711Z,64.85
2018-12-15T19:37:52.916Z,62.80
2018-12-15T19:40:40.776Z,65.15
2018-12-15T19:43:28.665Z,66.33
2018-12-15T19:46:16.733Z,63.92
2018-12-15T19:49:05.621Z,65.80
2018-12-15T19:51:53.378Z,65.32
2018-12-15T19:54:41.238Z,66.62
2018-12-15T19:57:29.041Z,60.70
2018-12-15T20:00:17.293Z,69.25
2018-12-15T20:03:05.178Z,61.30
2018-12-15T20:05:53.047Z,60.40
2018-12-15T20:08:41.304Z,65.25
2018-12-15T20:11:33.636Z,63.15
2018-12-15T20:14:22.723Z,63.17
2018-12-15T20:17:10.856Z,64.05
2018-12-15T20:20:00.720Z,59.75
2018-12-15T20:22:49.759Z,64.32
2018-12-15T20:25:37.469Z,65.32
2018-12-15T20:28:27.222Z,68.75
2018-12-15T20:31:15.237Z,61.90
2018-12-15T20:34:03.482Z,58.20
2018-12-15T20:36:51.223Z,63.30
2018-12-15T20:39:39.579Z,65.03
2018-12-15T20:42:28.320Z,59.63
2018-12-15T20:45:16.307Z,66.25
2018-12-15T20:48:06.290Z,64.05
2018-12-15T20:50:54.908Z,59.80
2018-12-15T20:53:42.388Z,60.52
2018-12-15T20:56:31.558Z,65.83
2018-12-15T20:59:19.948Z,66.47
2018-12-15T21:02:14.045Z,64.22
2018-12-15T21:05:01.806Z,58.90
2018-12-15T21:07:50.284Z,61.80
2018-12-15T21:10:40.112Z,63.90
2018-12-15T21:13:28.145Z,61.58
2018-12-15T21:16:16.263Z,64.95
2018-12-15T21:19:06.067Z,61.55
2018-12-15T21:21:54.644Z,63.85
2018-12-15T21:24:43.180Z,58.90
2018-12-15T21:27:31.281Z,67.10
2018-12-15T21:30:19.771Z,65.52
2018-12-15T21:33:07.734Z,66.05
2018-12-15T21:35:55.388Z,61.53
2018-12-15T21:38:48.779Z,60.75
2018-12-15T21:41:36.663Z,66.57
2018-12-15T21:44:24.695Z,65.40
2018-12-15T21:47:13.780Z,60.67
2018-12-15T21:50:01.713Z,67.50
2018-12-15T21:52:50.990Z,70.03
2018-12-15T21:55:39.396Z,65.30
2018-12-15T21:58:27.004Z,65.28
2018-12-15T22:01:15.086Z,60.38
2018-12-15T22:04:03.962Z,63.42
2018-12-15T22:06:53.319Z,64.03
2018-12-15T22:09:41.510Z,62.67
2018-12-15T22:12:29.886Z,61.15
2018-12-15T22:15:17.870Z,61.50
2018-12-15T22:18:06.068Z,62.73
2018-12-15T22:20:56.146Z,62.20
2018-12-15T22:23:45.274Z,62.08
2018-12-15T22:26:34.217Z,59.67
2018-12-15T22:29:21.946Z,62.10
2018-12-15T22:32:10.875Z,63.70
2018-12-15T22:35:00.407Z,61.53
2018-12-15T22:37:49.637Z,67.15
2018-12-15T22:40:39.285Z,58.75
2018-12-15T22:43:26.989Z,59.63
2018-12-15T22:46:14.688Z,64.27
2018-12-15T22:49:02.591Z,62.67
2018-12-15T22:51:51.002Z,62.38
2018-12-15T22:54:39.802Z,56.80
2018-12-15T22:57:27.866Z,58.68
2018-12-15T23:00:17.097Z,61.13
2018-12-15T23:03:08.479Z,58.68
2018-12-15T23:05:58.024Z,59.48
2018-12-15T23:08:46.607Z,63.40
2018-12-15T23:11:34.740Z,62.27
2018-12-15T23:14:22.987Z,58.58
2018-12-15T23:17:10.601Z,59.35
2018-12-15T23:19:59.059Z,56.98
2018-12-15T23:22:47.058Z,56.18
2018-12-15T23:25:40.069Z,59.98
2018-12-15T23:28:28.738Z,59.67
2018-12-15T23:31:16.777Z,60.95
2018-12-15T23:34:04.738Z,63.80
2018-12-15T23:36:52.997Z,58.05
2018-12-15T23:39:42.234Z,63.25
2018-12-15T23:42:30.798Z,64.03
2018-12-15T23:45:18.637Z,57.25
2018-12-15T23:48:06.547Z,56.00
2018-12-15T23:51:01.353Z,57.98
2018-12-15T23:53:49.365Z,55.28
2018-12-15T23:56:37.861Z,59.13
2018-12-15T23:59:26.394Z,58.70
